Time;durP1;ratioP1;P1;durP2;ratioP2;P2;SDS_P1;SDS_P2;PMS_P1;PMS_P2;Temp;Humidity;BMP_temperature;BMP_pressure;BME280_temperature;BME280_humidity;BME280_pressure;Samples;Min_cycle;Max_cycle;Signal;HPM_P1;HPM_P2
2023/12/19 00:01:08;;;;;;;44.22;23.27;;;7.70;99.90;;;;;;6300818;22;20012;-76
2023/12/19 00:03:34;;;;;;;45.38;23.90;;;7.70;99.90;;;;;;6300660;22;20407;-76
2023/12/19 00:06:00;;;;;;;40.97;23.15;;;7.80;99.90;;;;;;6300942;22;20042;-76
2023/12/19 00:08:26;;;;;;;42.92;23.38;;;7.70;99.90;;;;;;6300832;22;20026;-76
2023/12/19 00:10:51;;;;;;;43.33;21.85;;;7.70;99.90;;;;;;6300736;22;20441;-76
2023/12/19 00:13:17;;;;;;;40.42;21.67;;;7.80;99.90;;;;;;6300714;22;20351;-76
2023/12/19 00:15:43;;;;;;;38.58;20.73;;;7.60;99.90;;;;;;6300774;22;20065;-76
2023/12/19 00:18:09;;;;;;;36.30;20.75;;;7.70;99.90;;;;;;6300601;22;20020;-76
2023/12/19 00:20:34;;;;;;;37.90;19.60;;;7.70;99.90;;;;;;6300757;22;20149;-76
2023/12/19 00:23:00;;;;;;;36.47;20.05;;;7.60;99.90;;;;;;6302915;22;20019;-77
2023/12/19 00:25:26;;;;;;;37.45;20.02;;;7.70;99.90;;;;;;6300953;22;20475;-76
2023/12/19 00:27:52;;;;;;;34.17;19.25;;;7.70;99.90;;;;;;6300881;22;20444;-76
2023/12/19 00:30:18;;;;;;;38.58;20.50;;;7.70;99.90;;;;;;6300957;22;20023;-76
2023/12/19 00:32:44;;;;;;;35.92;19.10;;;7.60;99.90;;;;;;6300882;22;20020;-77
2023/12/19 00:35:11;;;;;;;34.17;18.63;;;7.60;99.90;;;;;;6301217;22;20023;-76
2023/12/19 00:37:37;;;;;;;39.83;20.63;;;7.70;99.90;;;;;;6302763;22;20023;-76
2023/12/19 00:40:05;;;;;;;29.48;17.88;;;7.70;99.90;;;;;;6300932;22;20025;-76
2023/12/19 00:42:31;;;;;;;31.15;18.30;;;7.60;99.90;;;;;;6301132;22;20023;-75
2023/12/19 00:44:56;;;;;;;31.10;18.23;;;7.70;99.90;;;;;;6301191;22;20395;-77
2023/12/19 00:47:22;;;;;;;32.60;18.73;;;7.70;99.90;;;;;;6302891;22;20007;-78
2023/12/19 00:49:48;;;;;;;30.13;18.10;;;7.70;99.90;;;;;;6302940;22;20007;-77
2023/12/19 00:52:13;;;;;;;33.67;18.33;;;7.70;99.90;;;;;;6300820;22;20046;-77
2023/12/19 00:54:39;;;;;;;26.40;17.05;;;7.70;99.90;;;;;;6300673;22;20026;-77
2023/12/19 00:57:05;;;;;;;30.20;17.55;;;7.70;99.90;;;;;;6302510;22;20011;-77
2023/12/19 00:59:30;;;;;;;33.20;19.13;;;7.70;99.90;;;;;;6302262;22;20393;-78
2023/12/19 01:01:56;;;;;;;28.77;17.40;;;7.70;99.90;;;;;;6302836;22;20466;-78
2023/12/19 01:04:22;;;;;;;31.42;17.67;;;7.70;99.90;;;;;;6300729;22;20091;-77
2023/12/19 01:06:47;;;;;;;29.52;18.05;;;7.60;99.90;;;;;;6301919;22;20019;-76
2023/12/19 01:09:13;;;;;;;29.95;18.40;;;7.70;99.90;;;;;;6302521;22;20008;-79
2023/12/19 01:11:39;;;;;;;28.05;16.25;;;7.70;99.90;;;;;;6302522;22;20019;-78
2023/12/19 01:14:05;;;;;;;25.77;16.58;;;7.70;99.90;;;;;;6302443;22;20051;-79
2023/12/19 01:16:31;;;;;;;27.55;16.50;;;7.70;99.90;;;;;;6302432;22;20019;-76
2023/12/19 01:18:57;;;;;;;23.30;15.23;;;7.60;99.90;;;;;;6302364;22;20309;-77
2023/12/19 01:21:23;;;;;;;23.63;14.45;;;7.60;99.90;;;;;;6302319;22;20031;-76
2023/12/19 01:23:48;;;;;;;35.20;15.95;;;7.50;99.90;;;;;;6302224;22;20446;-76
2023/12/19 01:26:14;;;;;;;25.60;15.32;;;7.50;99.90;;;;;;6304163;22;20047;-78
2023/12/19 01:28:40;;;;;;;26.67;15.40;;;7.50;99.90;;;;;;6303952;22;20019;-79
2023/12/19 01:31:06;;;;;;;23.20;15.32;;;7.50;99.90;;;;;;6301990;22;20019;-79
2023/12/19 01:33:31;;;;;;;27.52;15.40;;;7.50;99.90;;;;;;6302146;22;20015;-79
2023/12/19 01:35:57;;;;;;;23.73;15.60;;;7.60;99.90;;;;;;6301884;22;20027;-78
2023/12/19 01:38:23;;;;;;;26.23;16.05;;;7.50;99.90;;;;;;6302261;22;20049;-78
2023/12/19 01:40:48;;;;;;;25.95;14.73;;;7.60;99.90;;;;;;6302187;22;20011;-79
2023/12/19 01:43:19;;;;;;;24.73;15.40;;;7.60;99.90;;;;;;6302155;22;20344;-79
2023/12/19 01:45:45;;;;;;;23.95;15.00;;;7.60;99.90;;;;;;6303557;22;20019;-79
2023/12/19 01:48:12;;;;;;;20.52;13.98;;;7.60;99.90;;;;;;6302138;22;20023;-79
2023/12/19 01:50:38;;;;;;;23.42;16.10;;;7.60;99.90;;;;;;6302129;22;20367;-80
2023/12/19 01:53:04;;;;;;;22.67;14.82;;;7.60;99.90;;;;;;6302108;22;20019;-79
2023/12/19 01:55:30;;;;;;;21.80;15.15;;;7.50;99.90;;;;;;6302102;22;20011;-79
2023/12/19 01:57:56;;;;;;;23.33;14.60;;;7.50;99.90;;;;;;6276168;22;20011;-80
2023/12/19 02:00:23;;;;;;;21.75;14.32;;;7.50;99.90;;;;;;6301863;22;20088;-79
2023/12/19 02:02:52;;;;;;;25.75;15.68;;;7.50;99.90;;;;;;6302198;22;20443;-80
2023/12/19 02:05:19;;;;;;;20.92;13.80;;;7.50;99.90;;;;;;6302237;22;20015;-79
2023/12/19 02:07:45;;;;;;;22.52;15.25;;;7.50;99.90;;;;;;6302259;22;20018;-80
2023/12/19 02:10:11;;;;;;;23.17;14.80;;;7.50;99.90;;;;;;6302092;22;20028;-80
2023/12/19 02:12:38;;;;;;;24.10;14.95;;;7.50;99.90;;;;;;6303857;22;20021;-80
2023/12/19 02:15:04;;;;;;;20.98;14.30;;;7.50;99.90;;;;;;6301750;22;20369;-80
2023/12/19 02:17:30;;;;;;;23.75;14.82;;;7.50;99.90;;;;;;6301864;22;20017;-80
2023/12/19 02:19:55;;;;;;;23.00;14.10;;;7.40;99.90;;;;;;6301780;22;20047;-79
2023/12/19 02:22:21;;;;;;;20.17;13.77;;;7.40;99.90;;;;;;6301827;22;20077;-80
2023/12/19 02:24:48;;;;;;;20.48;13.38;;;7.40;99.90;;;;;;6301930;22;20043;-80
2023/12/19 02:27:14;;;;;;;19.13;13.57;;;7.40;99.90;;;;;;6301759;22;20019;-80
2023/12/19 02:29:40;;;;;;;21.27;14.32;;;7.40;99.90;;;;;;6301389;22;20451;-80
2023/12/19 02:32:06;;;;;;;21.42;13.63;;;7.40;99.90;;;;;;6301645;22;20019;-81
2023/12/19 02:34:32;;;;;;;24.70;14.95;;;7.50;99.90;;;;;;6303252;22;20049;-78
2023/12/19 02:36:57;;;;;;;19.23;12.77;;;7.50;99.90;;;;;;6275670;22;20019;-81
2023/12/19 02:39:23;;;;;;;19.27;13.02;;;7.40;99.90;;;;;;6301749;22;20076;-82
2023/12/19 02:41:49;;;;;;;21.58;12.98;;;7.40;99.90;;;;;;6302370;22;20440;-81
2023/12/19 02:44:15;;;;;;;22.10;14.50;;;7.50;99.90;;;;;;6302028;22;20018;-82
2023/12/19 02:46:40;;;;;;;21.00;14.18;;;7.60;99.90;;;;;;6301910;22;20023;-81
2023/12/19 02:49:06;;;;;;;23.10;14.93;;;7.50;99.90;;;;;;6303419;22;20443;-82
2023/12/19 02:51:32;;;;;;;20.63;13.85;;;7.40;99.90;;;;;;6301722;22;20014;-81
2023/12/19 02:53:58;;;;;;;19.73;14.07;;;7.40;99.90;;;;;;6301736;22;20063;-81
2023/12/19 02:56:25;;;;;;;21.15;12.90;;;7.40;99.90;;;;;;6301639;22;20023;-82
2023/12/19 02:58:51;;;;;;;18.40;12.60;;;7.50;99.90;;;;;;6301227;22;20533;-82
2023/12/19 03:01:16;;;;;;;20.05;12.85;;;7.40;99.90;;;;;;6301642;22;20324;-83
2023/12/19 03:03:43;;;;;;;21.25;13.85;;;7.40;99.90;;;;;;6301553;22;20026;-82
2023/12/19 03:06:13;;;;;;;20.00;12.73;;;7.50;99.90;;;;;;6303584;22;20011;-82
2023/12/19 03:08:38;;;;;;;21.00;13.00;;;7.50;99.90;;;;;;6303624;22;20050;-82
2023/12/19 03:11:04;;;;;;;20.30;12.85;;;7.50;99.90;;;;;;6301422;22;20066;-84
2023/12/19 03:13:30;;;;;;;17.02;12.18;;;7.30;99.90;;;;;;6301616;22;20351;-85
2023/12/19 03:15:55;;;;;;;19.30;12.20;;;7.50;99.90;;;;;;6302013;22;20025;-89
2023/12/19 03:18:24;;;;;;;22.63;12.10;;;7.40;99.90;;;;;;6302471;22;20092;-86
2023/12/19 03:20:54;;;;;;;16.33;11.43;;;7.40;99.90;;;;;;6302144;22;20019;-87
2023/12/19 03:23:22;;;;;;;14.95;10.82;;;7.40;99.90;;;;;;6303900;22;20340;-87
2023/12/19 03:25:48;;;;;;;16.83;10.50;;;7.50;99.90;;;;;;6301594;22;20542;-85
2023/12/19 03:28:14;;;;;;;15.60;10.88;;;7.40;99.90;;;;;;6301434;22;20026;-85
2023/12/19 03:30:39;;;;;;;16.63;10.95;;;7.40;99.90;;;;;;6301764;22;20026;-87
2023/12/19 03:33:05;;;;;;;19.98;11.65;;;7.40;99.90;;;;;;6303358;22;20026;-84
2023/12/19 03:35:31;;;;;;;16.58;11.05;;;7.40;99.90;;;;;;6301805;22;20771;-87
2023/12/19 03:37:58;;;;;;;18.75;11.30;;;7.40;99.90;;;;;;6303267;22;20422;-89
2023/12/19 03:40:23;;;;;;;17.63;11.15;;;7.50;99.90;;;;;;6303367;22;20340;-85
2023/12/19 03:42:49;;;;;;;16.77;11.23;;;7.50;99.90;;;;;;6303696;22;20045;-88
2023/12/19 03:45:15;;;;;;;17.45;11.32;;;7.50;99.90;;;;;;6303527;22;20482;-86
2023/12/19 03:47:41;;;;;;;15.82;10.93;;;7.40;99.90;;;;;;6301814;22;20027;-88
2023/12/19 03:50:08;;;;;;;14.07;10.38;;;7.40;99.90;;;;;;6301819;22;20023;-90
2023/12/19 03:52:35;;;;;;;18.98;11.80;;;7.50;99.90;;;;;;6301831;22;20104;-89
2023/12/19 03:55:01;;;;;;;19.63;11.35;;;7.40;99.90;;;;;;6303491;22;20074;-88
2023/12/19 03:57:27;;;;;;;16.02;10.40;;;7.50;99.90;;;;;;6303350;22;20111;-88
2023/12/19 03:59:53;;;;;;;14.75;10.45;;;7.50;99.90;;;;;;6301267;22;20461;-87
2023/12/19 04:02:19;;;;;;;16.55;11.05;;;7.50;99.90;;;;;;6303567;22;20004;-88
2023/12/19 04:04:45;;;;;;;14.65;10.55;;;7.50;99.90;;;;;;6303459;22;20085;-88
2023/12/19 04:07:11;;;;;;;17.70;11.32;;;7.50;99.90;;;;;;6302984;22;20049;-87
2023/12/19 04:09:37;;;;;;;19.33;11.52;;;7.50;99.90;;;;;;6301254;22;20055;-85
2023/12/19 04:12:03;;;;;;;17.55;11.13;;;7.40;99.90;;;;;;6301184;22;20015;-86
2023/12/19 04:14:33;;;;;;;18.83;11.13;;;7.50;99.90;;;;;;6301289;22;20046;-86
2023/12/19 04:16:59;;;;;;;16.60;10.65;;;7.50;99.90;;;;;;6301330;22;20373;-83
2023/12/19 04:19:25;;;;;;;18.58;11.50;;;7.50;99.90;;;;;;6301501;22;20019;-84
2023/12/19 04:21:51;;;;;;;16.55;10.68;;;7.50;99.90;;;;;;6303294;22;20393;-83
2023/12/19 04:24:19;;;;;;;16.98;11.15;;;7.50;99.90;;;;;;6302899;22;20012;-84
2023/12/19 04:26:46;;;;;;;17.75;10.80;;;7.50;99.90;;;;;;6303165;22;20086;-86
2023/12/19 04:29:12;;;;;;;16.83;10.38;;;7.40;99.90;;;;;;6303257;22;20289;-86
2023/12/19 04:31:39;;;;;;;18.38;10.43;;;7.50;99.90;;;;;;6303377;22;20117;-87
2023/12/19 04:34:05;;;;;;;17.13;10.63;;;7.50;99.90;;;;;;6301433;22;20022;-86
2023/12/19 04:36:31;;;;;;;13.88;9.27;;;7.50;99.90;;;;;;6303100;22;20102;-85
2023/12/19 04:38:58;;;;;;;14.48;9.82;;;7.50;99.90;;;;;;6301175;22;20023;-86
2023/12/19 04:41:23;;;;;;;14.85;9.80;;;7.50;99.90;;;;;;6303444;22;20121;-87
2023/12/19 04:43:49;;;;;;;16.15;9.88;;;7.40;99.90;;;;;;6303451;22;20463;-88
2023/12/19 04:46:15;;;;;;;15.07;10.05;;;7.60;99.90;;;;;;6303640;22;20015;-88
2023/12/19 04:48:42;;;;;;;14.75;9.90;;;7.60;99.90;;;;;;6303935;22;20041;-88
2023/12/19 04:51:20;;;;;;;14.27;9.75;;;7.50;99.90;;;;;;6305303;22;20015;-87
2023/12/19 04:53:46;;;;;;;13.32;9.13;;;7.60;99.90;;;;;;6303337;22;20131;-90
2023/12/19 04:56:12;;;;;;;13.55;9.90;;;7.60;99.90;;;;;;6305241;22;20011;-85
2023/12/19 04:58:43;;;;;;;13.65;9.40;;;7.60;99.90;;;;;;6304599;22;20045;-84
2023/12/19 05:01:08;;;;;;;14.27;9.10;;;7.60;99.90;;;;;;6304593;22;20053;-79
2023/12/19 05:03:37;;;;;;;15.48;10.13;;;7.60;99.90;;;;;;6302818;22;20436;-80
2023/12/19 05:06:04;;;;;;;14.90;9.38;;;7.60;99.90;;;;;;6303305;22;20335;-78
2023/12/19 05:08:30;;;;;;;14.48;9.90;;;7.50;99.90;;;;;;6303077;22;20032;-80
2023/12/19 05:10:56;;;;;;;16.30;10.18;;;7.50;99.90;;;;;;6304959;22;20017;-78
2023/12/19 05:13:21;;;;;;;13.18;9.90;;;7.60;99.90;;;;;;6305265;22;20030;-79
2023/12/19 05:15:49;;;;;;;11.80;8.82;;;7.60;99.90;;;;;;6304832;22;20047;-78
2023/12/19 05:18:18;;;;;;;13.65;9.27;;;7.50;99.90;;;;;;6303176;22;20028;-79
2023/12/19 05:20:44;;;;;;;12.07;8.38;;;7.60;99.90;;;;;;6302910;22;20589;-79
2023/12/19 05:23:10;;;;;;;14.50;9.40;;;7.50;99.90;;;;;;6302612;22;20026;-80
2023/12/19 05:25:35;;;;;;;11.75;8.73;;;7.60;99.90;;;;;;6302872;22;20019;-79
2023/12/19 05:28:01;;;;;;;13.30;8.73;;;7.70;99.90;;;;;;6304720;22;20022;-80
2023/12/19 05:30:27;;;;;;;12.55;9.10;;;7.60;99.90;;;;;;6304725;22;20415;-79
2023/12/19 05:32:52;;;;;;;13.05;8.93;;;7.60;99.90;;;;;;6305149;22;20015;-79
2023/12/19 05:35:18;;;;;;;13.48;9.02;;;7.50;99.90;;;;;;6304668;22;20095;-78
2023/12/19 05:37:44;;;;;;;11.15;8.45;;;7.60;99.90;;;;;;6302857;22;20046;-79
2023/12/19 05:40:10;;;;;;;13.23;9.30;;;7.60;99.90;;;;;;6304874;22;20023;-79
2023/12/19 05:42:36;;;;;;;10.10;8.15;;;7.60;99.90;;;;;;6303462;22;20011;-79
2023/12/19 05:45:03;;;;;;;12.30;8.32;;;7.60;99.90;;;;;;6305210;22;20016;-80
2023/12/19 05:47:29;;;;;;;9.30;7.32;;;7.60;99.90;;;;;;6303727;22;20030;-79
2023/12/19 05:49:55;;;;;;;10.77;7.85;;;7.50;99.90;;;;;;6303487;22;20015;-79
2023/12/19 05:52:20;;;;;;;10.15;6.80;;;7.60;99.90;;;;;;6302902;22;20023;-78
2023/12/19 05:54:46;;;;;;;10.98;7.25;;;7.60;99.90;;;;;;6304912;22;20119;-81
2023/12/19 05:57:12;;;;;;;10.32;7.20;;;7.50;99.90;;;;;;6303072;22;20015;-79
2023/12/19 05:59:37;;;;;;;10.40;7.50;;;7.60;99.90;;;;;;6303166;22;20019;-80
2023/12/19 06:02:03;;;;;;;10.15;7.15;;;7.70;99.90;;;;;;6303076;22;20015;-78
2023/12/19 06:04:29;;;;;;;11.02;6.80;;;7.60;99.90;;;;;;6304882;22;20447;-81
2023/12/19 06:06:55;;;;;;;9.52;7.07;;;7.70;99.90;;;;;;6304242;22;20046;-81
2023/12/19 06:09:20;;;;;;;9.13;6.40;;;7.70;99.90;;;;;;6302750;22;20102;-81
2023/12/19 06:11:46;;;;;;;9.73;7.35;;;7.60;99.90;;;;;;6304304;22;20345;-82
2023/12/19 06:14:12;;;;;;;11.15;6.85;;;7.60;99.90;;;;;;6302766;22;20024;-81
2023/12/19 06:16:37;;;;;;;9.02;6.55;;;7.70;99.90;;;;;;6302794;22;20023;-80
2023/12/19 06:19:05;;;;;;;9.50;6.72;;;7.70;99.90;;;;;;6302609;22;20021;-81
2023/12/19 06:21:31;;;;;;;8.57;6.18;;;7.60;99.90;;;;;;6302262;22;20065;-81
2023/12/19 06:23:56;;;;;;;8.80;6.75;;;7.60;99.90;;;;;;6302666;22;20042;-84
2023/12/19 06:26:22;;;;;;;11.32;6.72;;;7.60;99.90;;;;;;6302560;22;20404;-81
2023/12/19 06:28:48;;;;;;;7.72;6.35;;;7.60;99.90;;;;;;6302674;22;20015;-82
2023/12/19 06:31:14;;;;;;;8.70;6.25;;;7.60;99.90;;;;;;6302543;22;20016;-81
2023/12/19 06:33:39;;;;;;;8.75;5.97;;;7.60;99.90;;;;;;6302577;22;20018;-85
2023/12/19 06:36:06;;;;;;;9.15;7.10;;;7.60;99.90;;;;;;6301831;22;20050;-83
2023/12/19 06:38:32;;;;;;;9.23;6.80;;;7.60;99.90;;;;;;6302517;22;20050;-84
2023/12/19 06:40:58;;;;;;;11.10;7.13;;;7.60;99.90;;;;;;6302410;22;20316;-84
2023/12/19 06:43:24;;;;;;;11.82;8.07;;;7.60;99.90;;;;;;6303971;22;20017;-82
2023/12/19 06:45:49;;;;;;;10.07;7.38;;;7.60;99.90;;;;;;6302407;22;20499;-79
2023/12/19 06:48:16;;;;;;;8.00;6.10;;;7.70;99.90;;;;;;6302305;22;20076;-81
2023/12/19 06:50:42;;;;;;;8.02;6.43;;;7.60;99.90;;;;;;6301885;22;20401;-82
2023/12/19 06:53:08;;;;;;;8.70;6.03;;;7.60;99.90;;;;;;6302479;22;20047;-80
2023/12/19 06:55:33;;;;;;;9.40;6.35;;;7.70;99.90;;;;;;6304284;22;20023;-81
2023/12/19 06:57:59;;;;;;;8.50;6.35;;;7.60;99.90;;;;;;6302067;22;20449;-82
2023/12/19 07:00:25;;;;;;;9.35;6.75;;;7.60;99.90;;;;;;6302351;22;20347;-81
2023/12/19 07:02:51;;;;;;;7.57;6.15;;;7.60;99.90;;;;;;6303502;22;20098;-82
2023/12/19 07:05:17;;;;;;;9.05;6.03;;;7.70;99.90;;;;;;6304008;22;20380;-83
2023/12/19 07:07:42;;;;;;;8.73;6.30;;;7.70;99.90;;;;;;6302312;22;20335;-82
2023/12/19 07:10:09;;;;;;;9.98;6.80;;;7.70;99.90;;;;;;6304285;22;20054;-83
2023/12/19 07:12:36;;;;;;;10.80;6.60;;;7.70;99.90;;;;;;6276408;22;20022;-80
2023/12/19 07:15:04;;;;;;;8.40;6.40;;;7.70;99.90;;;;;;6302048;22;20396;-80
2023/12/19 07:17:30;;;;;;;11.88;7.05;;;7.80;99.90;;;;;;6302072;22;20019;-78
2023/12/19 07:19:55;;;;;;;8.48;6.25;;;7.80;99.90;;;;;;6301757;22;20069;-80
2023/12/19 07:22:21;;;;;;;9.80;6.40;;;7.80;99.90;;;;;;6302174;22;20175;-79
2023/12/19 07:24:47;;;;;;;8.45;6.50;;;7.80;99.90;;;;;;6304114;22;20094;-78
2023/12/19 07:27:12;;;;;;;8.57;6.38;;;7.70;99.90;;;;;;6303709;22;20012;-77
2023/12/19 07:29:39;;;;;;;7.15;5.53;;;7.80;99.90;;;;;;6303674;22;20019;-78
2023/12/19 07:32:05;;;;;;;8.43;6.53;;;7.80;99.90;;;;;;6303177;22;20022;-77
2023/12/19 07:34:31;;;;;;;7.93;5.85;;;7.70;99.90;;;;;;6301951;22;20324;-78
2023/12/19 07:36:57;;;;;;;9.50;6.75;;;7.80;99.90;;;;;;6301805;22;20027;-77
2023/12/19 07:39:23;;;;;;;8.00;6.55;;;7.80;99.90;;;;;;6301469;22;20019;-76
2023/12/19 07:41:49;;;;;;;7.88;6.00;;;7.80;99.90;;;;;;6303571;22;20050;-77
2023/12/19 07:44:16;;;;;;;11.55;6.57;;;7.80;99.90;;;;;;6276005;22;20019;-77
2023/12/19 07:46:42;;;;;;;8.57;6.28;;;7.80;99.90;;;;;;6306549;22;20026;-78
2023/12/19 07:49:11;;;;;;;9.85;6.07;;;7.80;99.90;;;;;;6309472;22;20137;-81
2023/12/19 07:51:37;;;;;;;7.03;5.63;;;7.80;99.90;;;;;;6309403;22;20019;-80
2023/12/19 07:54:03;;;;;;;7.57;5.53;;;7.80;99.90;;;;;;6309499;22;20042;-78
2023/12/19 07:56:28;;;;;;;7.05;5.82;;;7.70;99.90;;;;;;6308133;22;20053;-79
2023/12/19 07:58:54;;;;;;;6.82;5.50;;;7.80;99.90;;;;;;6305698;22;20019;-80
2023/12/19 08:01:20;;;;;;;6.50;5.40;;;7.80;99.90;;;;;;6301277;22;20018;-79
2023/12/19 08:03:47;;;;;;;6.93;5.38;;;7.80;99.90;;;;;;6301145;22;20019;-80
2023/12/19 08:06:13;;;;;;;6.53;5.43;;;7.80;99.90;;;;;;6301773;22;20015;-78
2023/12/19 08:08:42;;;;;;;6.85;5.07;;;7.80;99.90;;;;;;6301732;22;20030;-80
2023/12/19 08:11:08;;;;;;;6.10;5.25;;;7.90;99.90;;;;;;6301528;22;20034;-79
2023/12/19 08:13:35;;;;;;;5.97;5.15;;;7.90;99.90;;;;;;6303314;22;20344;-78
2023/12/19 08:16:01;;;;;;;6.32;4.93;;;7.90;99.90;;;;;;6303155;22;20078;-79
2023/12/19 08:18:27;;;;;;;6.10;4.95;;;7.90;99.90;;;;;;6303404;22;20019;-80
2023/12/19 08:20:53;;;;;;;5.50;4.93;;;7.90;99.90;;;;;;6303490;22;20019;-82
2023/12/19 08:23:18;;;;;;;6.03;5.32;;;7.90;99.90;;;;;;6303367;22;20023;-84
2023/12/19 08:25:44;;;;;;;6.75;5.03;;;8.00;99.90;;;;;;6303358;22;20023;-84
2023/12/19 08:28:10;;;;;;;5.82;5.22;;;8.00;99.90;;;;;;6302941;22;20019;-80
2023/12/19 08:30:36;;;;;;;5.78;4.85;;;7.90;99.90;;;;;;6302841;22;20022;-85
2023/12/19 08:33:02;;;;;;;5.75;4.82;;;7.90;99.90;;;;;;6304075;22;20094;-82
2023/12/19 08:35:29;;;;;;;6.07;4.88;;;7.90;99.90;;;;;;6304815;22;20088;-81
2023/12/19 08:37:55;;;;;;;5.03;4.40;;;8.00;99.90;;;;;;6302729;22;20343;-86
2023/12/19 08:40:21;;;;;;;5.80;5.10;;;8.00;99.90;;;;;;6302723;22;20027;-80
2023/12/19 08:42:48;;;;;;;4.97;4.35;;;8.00;99.90;;;;;;6302731;22;20022;-80
2023/12/19 08:45:17;;;;;;;5.88;4.78;;;8.00;99.90;;;;;;6302438;22;20018;-79
2023/12/19 08:47:44;;;;;;;5.45;4.90;;;8.00;99.90;;;;;;6302686;22;20019;-80
2023/12/19 08:50:12;;;;;;;7.10;5.10;;;8.10;99.90;;;;;;6302429;22;20480;-80
2023/12/19 08:52:42;;;;;;;6.47;4.75;;;8.10;99.90;;;;;;6304362;22;20012;-79
2023/12/19 08:55:10;;;;;;;6.28;4.78;;;8.10;99.90;;;;;;6303873;22;20011;-81
2023/12/19 08:57:40;;;;;;;4.78;4.28;;;8.10;99.90;;;;;;6304415;22;20049;-81
2023/12/19 09:00:07;;;;;;;5.82;4.63;;;8.10;99.90;;;;;;6301914;22;20023;-80
2023/12/19 09:02:32;;;;;;;6.22;4.78;;;8.10;99.90;;;;;;6302289;22;20042;-81
2023/12/19 09:04:58;;;;;;;8.50;5.00;;;8.10;99.90;;;;;;6302500;22;20435;-84
2023/12/19 09:07:24;;;;;;;6.55;4.97;;;8.10;99.90;;;;;;6302334;22;20336;-80
2023/12/19 09:09:52;;;;;;;6.10;5.05;;;8.10;99.90;;;;;;6302308;22;20176;-80
2023/12/19 09:12:17;;;;;;;5.57;4.90;;;8.10;99.90;;;;;;6302300;22;20019;-81
2023/12/19 09:14:43;;;;;;;6.43;5.38;;;8.10;99.90;;;;;;6301896;22;20447;-83
2023/12/19 09:17:09;;;;;;;6.63;5.57;;;8.20;99.90;;;;;;6303908;22;20031;-83
2023/12/19 09:19:37;;;;;;;6.90;5.25;;;8.20;99.90;;;;;;6303883;22;20011;-81
2023/12/19 09:22:03;;;;;;;8.05;6.28;;;8.30;99.90;;;;;;6304126;22;20022;-82
2023/12/19 09:24:30;;;;;;;6.95;5.75;;;8.20;99.90;;;;;;6304118;22;20394;-82
2023/12/19 09:26:59;;;;;;;7.10;6.28;;;8.30;99.90;;;;;;6302017;22;20015;-81
2023/12/19 09:29:27;;;;;;;8.63;6.18;;;8.30;99.90;;;;;;6302578;22;20011;-80
2023/12/19 09:31:54;;;;;;;5.95;5.35;;;8.30;99.90;;;;;;6304368;22;20458;-79
2023/12/19 09:34:19;;;;;;;7.95;5.95;;;8.30;99.90;;;;;;6304274;22;20011;-76
2023/12/19 09:36:45;;;;;;;6.50;5.57;;;8.30;99.90;;;;;;6302342;22;20046;-77
2023/12/19 09:39:14;;;;;;;8.15;6.15;;;8.30;99.90;;;;;;6304347;22;20019;-79
2023/12/19 09:41:45;;;;;;;6.65;5.72;;;8.30;99.90;;;;;;6304038;22;20051;-79
2023/12/19 09:44:11;;;;;;;7.03;5.82;;;8.30;99.90;;;;;;6302233;22;20090;-81
2023/12/19 09:46:37;;;;;;;7.85;5.55;;;8.30;99.90;;;;;;6304247;22;20042;-78
2023/12/19 09:49:03;;;;;;;6.65;5.53;;;8.40;99.90;;;;;;6302244;22;20007;-79
2023/12/19 09:51:32;;;;;;;7.68;6.00;;;8.50;99.90;;;;;;6302305;22;20010;-81
2023/12/19 09:54:00;;;;;;;9.20;7.07;;;8.40;99.90;;;;;;6304147;22;20047;-82
2023/12/19 09:56:27;;;;;;;7.45;6.57;;;8.40;99.90;;;;;;6303881;22;20404;-83
2023/12/19 09:58:55;;;;;;;8.45;6.60;;;8.50;99.90;;;;;;6302752;22;20014;-82
2023/12/19 10:01:20;;;;;;;8.40;6.82;;;8.50;99.90;;;;;;6303867;22;20019;-80
2023/12/19 10:03:49;;;;;;;7.15;6.32;;;8.50;99.90;;;;;;6301751;22;20519;-81
2023/12/19 10:06:17;;;;;;;8.48;6.75;;;8.50;99.90;;;;;;6303643;22;20008;-80
2023/12/19 10:08:44;;;;;;;9.40;6.95;;;8.50;99.90;;;;;;6301837;22;20011;-82
2023/12/19 10:11:17;;;;;;;8.07;6.50;;;8.50;99.90;;;;;;6301886;22;20080;-83
2023/12/19 10:13:43;;;;;;;8.15;6.82;;;8.60;99.90;;;;;;6303402;22;20050;-84
2023/12/19 10:16:17;;;;;;;9.07;6.70;;;8.50;99.90;;;;;;6301851;22;20018;-80
2023/12/19 10:18:52;;;;;;;9.05;7.10;;;8.60;99.90;;;;;;6303682;22;20517;-81
2023/12/19 10:21:20;;;;;;;8.82;7.15;;;8.60;99.90;;;;;;6301653;22;20090;-81
2023/12/19 10:23:46;;;;;;;11.75;7.38;;;8.60;99.90;;;;;;6301788;22;20026;-82
2023/12/19 10:26:12;;;;;;;8.02;6.60;;;8.60;99.90;;;;;;6301516;22;20015;-81
2023/12/19 10:28:38;;;;;;;8.90;7.45;;;8.60;99.90;;;;;;6301822;22;20038;-83
2023/12/19 10:31:14;;;;;;;9.25;7.53;;;8.60;99.90;;;;;;6301640;22;20090;-81
2023/12/19 10:33:50;;;;;;;9.48;6.95;;;8.60;99.90;;;;;;6301577;22;20498;-82
2023/12/19 10:36:29;;;;;;;9.40;7.55;;;8.50;99.90;;;;;;6301445;22;20023;-82
2023/12/19 10:38:59;;;;;;;7.85;6.53;;;8.60;99.90;;;;;;6303227;22;20094;-78
2023/12/19 10:41:27;;;;;;;8.77;7.20;;;8.70;99.90;;;;;;6301697;22;20103;-82
2023/12/19 10:43:56;;;;;;;9.60;6.75;;;8.70;99.90;;;;;;6301799;22;20019;-82
2023/12/19 10:46:25;;;;;;;9.82;7.32;;;8.70;99.90;;;;;;6301886;22;20023;-81
2023/12/19 10:49:02;;;;;;;8.35;7.20;;;8.70;99.90;;;;;;6303624;22;20086;-82
2023/12/19 10:51:42;;;;;;;11.13;7.75;;;8.70;99.90;;;;;;6303743;22;20011;-82
2023/12/19 10:54:12;;;;;;;10.82;8.23;;;8.60;99.90;;;;;;6301761;22;20049;-81
2023/12/19 10:56:51;;;;;;;11.80;8.15;;;8.70;99.90;;;;;;6303001;22;20027;-78
2023/12/19 10:59:31;;;;;;;12.73;7.85;;;8.80;99.90;;;;;;6301625;22;20081;-79
2023/12/19 11:02:07;;;;;;;10.40;7.75;;;8.90;99.90;;;;;;6301644;22;20047;-80
2023/12/19 11:04:44;;;;;;;10.27;8.15;;;8.80;99.90;;;;;;6299603;22;20014;-79
2023/12/19 11:07:15;;;;;;;9.43;7.97;;;8.80;99.90;;;;;;6301114;22;20011;-83
2023/12/19 11:09:46;;;;;;;9.65;7.38;;;8.80;99.90;;;;;;6301335;22;20027;-78
2023/12/19 11:12:12;;;;;;;8.98;7.57;;;8.80;99.90;;;;;;6300836;22;20572;-76
2023/12/19 11:14:39;;;;;;;8.57;7.20;;;8.90;99.90;;;;;;6301052;22;20463;-77
2023/12/19 11:17:28;;;;;;;9.70;8.40;;;8.90;99.90;;;;;;6302620;22;20015;-78
2023/12/19 11:20:13;;;;;;;8.13;6.95;;;8.90;99.90;;;;;;6300449;22;20082;-78
2023/12/19 11:23:34;;;;;;;9.27;8.15;;;8.90;99.90;;;;;;6300803;22;20463;-75
2023/12/19 11:26:06;;;;;;;9.05;7.05;;;8.90;99.90;;;;;;6251939;22;20383;-77
2023/12/19 11:28:36;;;;;;;8.70;6.93;;;8.90;99.90;;;;;;6300737;22;20072;-76
2023/12/19 11:31:03;;;;;;;10.00;7.60;;;8.90;99.90;;;;;;6299618;22;20483;-77
2023/12/19 11:33:30;;;;;;;9.90;8.30;;;8.90;99.90;;;;;;6300477;22;20019;-77
2023/12/19 11:35:56;;;;;;;10.90;8.00;;;8.90;99.90;;;;;;6300350;22;20086;-78
2023/12/19 11:38:25;;;;;;;9.98;7.30;;;8.90;99.90;;;;;;6300573;22;20058;-78
2023/12/19 11:40:58;;;;;;;9.82;7.72;;;8.90;99.90;;;;;;6300021;22;20022;-79
2023/12/19 11:43:26;;;;;;;9.18;8.10;;;8.90;99.90;;;;;;6300522;22;20015;-79
2023/12/19 11:45:53;;;;;;;11.85;8.55;;;9.00;99.90;;;;;;6302427;22;20015;-79
2023/12/19 11:48:39;;;;;;;11.15;8.35;;;8.90;99.90;;;;;;6300452;22;20448;-80
2023/12/19 11:51:09;;;;;;;11.43;8.05;;;9.00;99.90;;;;;;6300213;22;20038;-78
2023/12/19 11:53:36;;;;;;;9.70;8.30;;;8.90;99.90;;;;;;6300199;22;20014;-79
2023/12/19 11:56:08;;;;;;;9.90;7.85;;;9.00;99.90;;;;;;6300439;22;20015;-78
2023/12/19 11:58:34;;;;;;;9.07;7.22;;;9.10;99.90;;;;;;6302128;22;20091;-79
2023/12/19 12:01:01;;;;;;;9.23;7.32;;;9.00;99.90;;;;;;6300183;22;20015;-78
2023/12/19 12:03:27;;;;;;;9.75;8.02;;;9.00;99.90;;;;;;6300428;22;20023;-78
2023/12/19 12:05:53;;;;;;;9.23;7.70;;;9.00;99.90;;;;;;6302333;22;20011;-79
2023/12/19 12:08:22;;;;;;;12.07;8.88;;;9.00;99.90;;;;;;6300287;22;20019;-79
2023/12/19 12:11:02;;;;;;;10.50;8.50;;;9.00;99.90;;;;;;6299987;22;20026;-79
2023/12/19 12:13:29;;;;;;;10.20;7.85;;;9.00;99.90;;;;;;6300259;22;20026;-79
2023/12/19 12:15:59;;;;;;;8.63;7.45;;;9.00;99.90;;;;;;6302219;22;20050;-79
2023/12/19 12:18:26;;;;;;;10.55;8.50;;;9.00;99.90;;;;;;6300476;22;20011;-79
2023/12/19 12:21:08;;;;;;;10.63;8.48;;;9.00;99.90;;;;;;6300242;22;20154;-79
2023/12/19 12:23:34;;;;;;;9.48;7.75;;;9.00;99.90;;;;;;6300315;22;20050;-79
2023/12/19 12:26:00;;;;;;;9.30;8.07;;;9.10;99.90;;;;;;6300431;22;20487;-80
2023/12/19 12:28:26;;;;;;;10.85;8.35;;;9.00;99.90;;;;;;6302401;22;20011;-80
2023/12/19 12:30:54;;;;;;;9.27;7.90;;;9.10;99.90;;;;;;6300335;22;20019;-79
2023/12/19 12:33:21;;;;;;;8.35;7.47;;;9.10;99.90;;;;;;6300642;22;20200;-79
2023/12/19 12:35:47;;;;;;;9.23;7.75;;;9.10;99.90;;;;;;6300602;22;20084;-78
2023/12/19 12:38:17;;;;;;;7.88;6.45;;;9.10;99.90;;;;;;6300252;22;20016;-81
2023/12/19 12:41:00;;;;;;;8.23;6.22;;;9.10;99.90;;;;;;6273867;22;20016;-78
2023/12/19 12:43:43;;;;;;;10.63;7.10;;;9.10;99.90;;;;;;6300447;22;20456;-80
2023/12/19 12:46:14;;;;;;;7.57;6.10;;;9.10;99.90;;;;;;6300440;22;20015;-80
2023/12/19 12:48:44;;;;;;;9.68;6.97;;;9.00;99.90;;;;;;6300645;22;20090;-80